KFMH

Cape Cod Coast Guard Air Station Airport

Falmouth, Massachusetts, USA
METAR KFMH 172115Z AUTO 16007KT 10SM CLR 01/M06 A3038 RMK AO2
Observed Flight Rules
Feb-17 @ 21:15 UTC (22 minutes ago) Visual Flight Rules
Wind Visibility Clouds
160° at 7 knots 10 miles
  • Clear skies
Temperatures Readings
Current 1°C / 34°F
Dewpoint -6°C / 21°F
Humidity 60%
Altimeter 30.38" Hg
Pressure 1029 hPa
Elevation 40
METAR KFMH 172115Z AUTO 16007KT 10SM CLR 01/M06 A3038 RMK AO2
Observed Flight Rules
Feb-17 @ 21:15 UTC
(22 minutes ago)
VFR
Wind Visibility
160° at 7 knots 10 miles
Clouds
  • Clear skies
Temperature Dewpoint
1°C / 34°F -6°C / 21°F
Humidity Altimeter Pressure
60% 30.38" Hg 1029 hPa